Guernsey, IA (52221)

7:45 AM CST on January 26, 2015 (GMT -0600)
APRSWXNET Brooklyn IA US | Change Station
CLOSE
Current Station
Personal Weather Station
Location: Brooklyn, IA
Elevation: 940 ft
Nearby Weather Stations

Elev 940 ft 41.70 °N, 92.45 °W | Updated 35 minutes ago

Snow
Snow
29 °F
Feels Like 29 °F
N
1
Wind Variable Wind from SSE
Gusts 4.0 mph

Today
High -- | Low -- °F
--% Chance of Precip.
Yesterday
High -- | Low -- °F
Precip. -- in
7:27 AM 5:17 PM
Waxing Crescent, 43% visible
Pressure 29.86 in
Visibility 10.0 miles
Clouds Scattered Clouds 1700 ft
Mostly Cloudy 4300 ft
Overcast 6000 ft
Windchill 29 °F
Dew Point 27 °F
Humidity 92%
Rainfall 0.00 in
Snow Depth Not available.
UV 0 out of 12
Pollen .10 out of 12
Air Quality Not available.
Flu Activity Not available.
METAR KGGI 261335Z AUTO 20011KT 10SM SCT017 BKN043 OVC060 M01/M02 A2986 RMK AO2 T10101025

More Conditions Fewer Conditions

Pressure 29.86 in
Visibility 10.0 miles
Clouds Scattered Clouds 1700 ft
Mostly Cloudy 4300 ft
Overcast 6000 ft
Windchill 29 °F
Dew Point 27 °F
Humidity 92%
Rainfall 0.00 in
Snow Depth Not available.
UV 0 out of 12
Pollen .10 out of 12
Air Quality Not available.
Flu Activity Not available.
METAR KGGI 261335Z AUTO 20011KT 10SM SCT017 BKN043 OVC060 M01/M02 A2986 RMK AO2 T10101025

More Conditions Fewer Conditions

10-Day Weather Forecast

Almanac

Astronomy

Jan. 26, 2015 Rise Set
Actual Time
Civil Twilight
Nautical Twilight
Astronomical Twilight
Moon
Length of Visible Light
Length of Day
Tomorrow will be .
, % of the Moon is Illuminated

Today's Extremes

State Highs State Lows

Community

WunderPhotos

Upload Photos

1,790,200 photos uploaded!

WunderBlogs® & News

Nearby

Air Quality

  Air Quality AQ Index Pollutant
Not available.

Snow Depth

Station Depth Elevation

Earthquake Activity

City Distance Mag. Time & Date
Minimum magnitude displayed is 2.5.

Coastal Water Temperatures

Place Temperature

Nearby Weather Stations